Time;durP1;ratioP1;P1;durP2;ratioP2;P2;SDS_P1;SDS_P2;PMS_P1;PMS_P2;Temp;Humidity;BMP_temperature;BMP_pressure;BME280_temperature;BME280_humidity;BME280_pressure;Samples;Min_cycle;Max_cycle;Signal;HPM_P1;HPM_P2
2022/12/27 00:01:28;;;;;;;23.38;20.35;;;11.20;89.10;;;;;;10941979;32;20352;-73
2022/12/27 00:07:32;;;;;;;29.87;23.35;;;11.10;89.10;;;;;;10941676;32;20423;-73
2022/12/27 00:13:34;;;;;;;30.05;22.98;;;11.00;89.20;;;;;;10941716;32;20098;-73
2022/12/27 00:19:36;;;;;;;27.60;22.98;;;11.00;89.30;;;;;;10941195;32;20050;-73
2022/12/27 00:25:38;;;;;;;37.03;26.55;;;11.10;89.30;;;;;;10488810;27;11905441;-73
2022/12/27 00:31:40;;;;;;;30.00;23.65;;;11.30;89.20;;;;;;10824806;33;20387;-73
2022/12/27 00:37:42;;;;;;;37.88;29.02;;;11.30;89.00;;;;;;10821787;33;20346;-73
2022/12/27 00:43:45;;;;;;;31.90;25.60;;;11.20;89.10;;;;;;10819079;32;20194;-73
2022/12/27 00:49:48;;;;;;;30.48;26.45;;;11.20;89.20;;;;;;10875188;32;20046;-73
2022/12/27 00:55:50;;;;;;;24.77;21.75;;;11.20;89.20;;;;;;10893755;32;20337;-73
2022/12/27 01:01:52;;;;;;;31.55;24.15;;;11.00;89.20;;;;;;10908012;32;20057;-73
2022/12/27 01:07:54;;;;;;;25.80;19.80;;;11.00;89.30;;;;;;10909850;32;20031;-73
2022/12/27 01:13:59;;;;;;;26.45;21.48;;;11.10;89.40;;;;;;10909905;32;20015;-74
2022/12/27 01:20:03;;;;;;;25.77;21.50;;;11.10;89.20;;;;;;10909727;32;20046;-74
2022/12/27 01:26:09;;;;;;;31.27;24.10;;;11.10;89.20;;;;;;10895990;32;20401;-74
2022/12/27 01:32:11;;;;;;;34.90;27.58;;;11.20;89.10;;;;;;10909248;32;20019;-74
2022/12/27 01:38:13;;;;;;;30.15;24.95;;;11.20;89.10;;;;;;10909029;32;20007;-73
2022/12/27 01:44:37;;;;;;;32.88;25.37;;;11.20;89.00;;;;;;10908852;32;20011;-74
2022/12/27 01:51:00;;;;;;;40.22;28.35;;;11.20;89.00;;;;;;10907680;32;20046;-73
2022/12/27 01:57:03;;;;;;;37.08;30.62;;;11.30;89.10;;;;;;10896232;32;20019;-74
2022/12/27 02:03:05;;;;;;;29.50;25.25;;;11.30;89.10;;;;;;10908152;32;20039;-73
2022/12/27 02:09:30;;;;;;;31.95;25.00;;;11.30;89.20;;;;;;10905953;32;20367;-74
2022/12/27 02:15:34;;;;;;;35.03;26.42;;;11.30;89.10;;;;;;10893951;32;20050;-74
2022/12/27 02:22:24;;;;;;;29.15;21.10;;;11.30;89.10;;;;;;10907627;32;20031;-74
2022/12/27 02:28:31;;;;;;;30.83;22.27;;;11.30;89.10;;;;;;10756016;32;20025;-74
2022/12/27 02:34:57;;;;;;;26.48;20.42;;;11.20;89.20;;;;;;10754590;33;20040;-74
2022/12/27 02:54:09;;;;;;;27.83;20.12;;;11.20;89.40;;;;;;10754524;33;20386;-74
2022/12/27 03:07:06;;;;;;;20.23;14.15;;;11.20;89.10;;;;;;10904752;32;20019;-73
2022/12/27 03:26:24;;;;;;;32.60;25.90;;;11.10;89.40;;;;;;10905117;32;20054;-74
2022/12/27 03:39:12;;;;;;;36.45;26.62;;;11.20;89.30;;;;;;10901991;32;20031;-73
2022/12/27 03:45:16;;;;;;;28.95;22.15;;;11.20;89.20;;;;;;10717578;33;20070;-73
2022/12/27 03:51:24;;;;;;;21.25;16.37;;;11.20;89.30;;;;;;10716382;33;20353;-73
2022/12/27 03:57:27;;;;;;;29.37;17.80;;;11.10;89.20;;;;;;10717329;33;20051;-73
2022/12/27 04:03:55;;;;;;;19.65;14.65;;;11.00;89.30;;;;;;10714195;33;20056;-73
2022/12/27 04:35:22;;;;;;;22.17;15.23;;;11.00;89.30;;;;;;10911301;32;20046;-73
2022/12/27 05:19:52;;;;;;;23.90;17.42;;;10.70;89.20;;;;;;10905805;32;20015;-73
2022/12/27 05:25:54;;;;;;;25.20;18.08;;;10.60;89.20;;;;;;10909265;32;20392;-73
2022/12/27 05:31:56;;;;;;;22.50;17.87;;;10.50;89.10;;;;;;10907275;32;20015;-73
2022/12/27 05:37:59;;;;;;;28.95;22.20;;;10.50;89.20;;;;;;10896993;32;20023;-73
2022/12/27 05:44:01;;;;;;;19.23;14.77;;;10.50;89.10;;;;;;10908873;32;20295;-73
2022/12/27 05:50:03;;;;;;;18.45;15.13;;;10.50;89.10;;;;;;10908655;32;20065;-73
2022/12/27 05:56:06;;;;;;;18.55;13.50;;;10.30;89.10;;;;;;10908300;32;20342;-73
2022/12/27 06:02:08;;;;;;;20.23;14.57;;;10.30;89.00;;;;;;10908331;32;20042;-73
2022/12/27 06:08:10;;;;;;;24.02;15.90;;;10.20;88.80;;;;;;10907942;32;20045;-73
2022/12/27 06:14:13;;;;;;;25.35;20.92;;;10.20;88.80;;;;;;10907727;32;20023;-73
2022/12/27 06:20:15;;;;;;;26.02;17.17;;;10.20;88.80;;;;;;10907492;32;20054;-73
2022/12/27 06:26:20;;;;;;;18.60;13.50;;;10.30;88.80;;;;;;10907191;32;20023;-73
2022/12/27 06:32:22;;;;;;;26.17;20.50;;;10.10;88.50;;;;;;10906974;32;20338;-73
2022/12/27 06:38:24;;;;;;;20.92;18.52;;;10.00;88.70;;;;;;10906328;32;20051;-73
2022/12/27 06:44:27;;;;;;;22.50;19.05;;;10.20;88.70;;;;;;10906626;32;20023;-73
2022/12/27 06:50:29;;;;;;;26.73;20.88;;;10.40;88.30;;;;;;10906429;32;20027;-73
2022/12/27 06:56:32;;;;;;;23.12;19.80;;;10.20;88.00;;;;;;10905604;32;20038;-72
2022/12/27 07:02:33;;;;;;;32.75;26.00;;;10.30;88.20;;;;;;10892433;32;20032;-73
2022/12/27 07:08:36;;;;;;;27.17;19.58;;;10.20;88.20;;;;;;10888424;32;20050;-73
2022/12/27 07:14:38;;;;;;;35.03;27.17;;;10.20;87.90;;;;;;10891502;32;20035;-73
2022/12/27 07:20:40;;;;;;;35.20;23.12;;;10.40;88.00;;;;;;10905371;32;20019;-73
2022/12/27 07:26:42;;;;;;;37.58;27.98;;;10.50;87.50;;;;;;10902115;32;20024;-73
2022/12/27 07:32:44;;;;;;;27.80;21.30;;;10.60;87.30;;;;;;10905091;32;20322;-73
2022/12/27 07:38:47;;;;;;;24.70;19.42;;;10.60;87.00;;;;;;10904923;32;20041;-73
2022/12/27 07:44:50;;;;;;;22.02;16.40;;;10.60;87.00;;;;;;10890598;32;20035;-73
2022/12/27 07:57:50;;;;;;;22.05;18.75;;;10.40;87.10;;;;;;10904246;32;20019;-73
2022/12/27 08:03:52;;;;;;;25.70;19.90;;;10.50;86.70;;;;;;10901159;32;20045;-73
2022/12/27 08:09:55;;;;;;;34.05;26.87;;;10.50;86.90;;;;;;10904038;32;20043;-73
2022/12/27 08:15:57;;;;;;;22.70;19.17;;;10.70;87.10;;;;;;10912669;32;20587;-73
2022/12/27 08:21:59;;;;;;;22.27;19.12;;;10.50;86.90;;;;;;10917598;27;20032;-73
2022/12/27 08:28:06;;;;;;;29.37;22.80;;;10.50;87.30;;;;;;10866349;32;20019;-73
2022/12/27 08:34:08;;;;;;;27.95;21.70;;;10.50;87.40;;;;;;10873111;32;20024;-73
2022/12/27 08:40:10;;;;;;;23.27;20.62;;;10.50;87.20;;;;;;10885849;32;20394;-73
2022/12/27 08:46:13;;;;;;;24.12;19.65;;;10.30;87.40;;;;;;10890051;32;20034;-73
2022/12/27 08:52:15;;;;;;;21.80;18.10;;;10.20;87.50;;;;;;10900321;32;20031;-73
2022/12/27 08:58:17;;;;;;;23.17;19.30;;;10.20;88.00;;;;;;10900448;32;20041;-73
2022/12/27 09:04:19;;;;;;;18.20;15.25;;;10.40;87.70;;;;;;10905311;32;20023;-73
2022/12/27 09:10:23;;;;;;;18.35;14.87;;;10.30;87.70;;;;;;10909576;32;20019;-73
2022/12/27 09:16:26;;;;;;;21.92;15.73;;;10.30;87.90;;;;;;10909710;32;20046;-73
2022/12/27 09:22:28;;;;;;;20.10;15.65;;;10.40;88.10;;;;;;10908180;32;20027;-73
2022/12/27 09:28:30;;;;;;;21.42;17.05;;;10.70;88.40;;;;;;10909256;32;20042;-74
2022/12/27 09:34:33;;;;;;;21.08;17.95;;;10.80;88.30;;;;;;10908998;32;20034;-73
2022/12/27 09:40:36;;;;;;;19.48;15.77;;;11.00;88.40;;;;;;10892046;32;20050;-73
2022/12/27 09:46:55;;;;;;;17.65;12.05;;;11.10;88.50;;;;;;10858002;32;20338;-73
2022/12/27 09:53:04;;;;;;;13.25;11.25;;;11.20;88.50;;;;;;10853591;32;20028;-73
2022/12/27 09:59:20;;;;;;;18.02;11.82;;;11.20;88.30;;;;;;10867321;32;20046;-75
2022/12/27 10:05:29;;;;;;;14.55;10.93;;;11.20;88.40;;;;;;10857008;32;20311;-75
2022/12/27 10:12:07;;;;;;;21.50;14.07;;;11.10;88.20;;;;;;10870750;32;20023;-75
2022/12/27 10:18:34;;;;;;;10.93;8.27;;;11.30;88.80;;;;;;10870244;32;20344;-75
2022/12/27 10:24:53;;;;;;;12.45;9.15;;;11.60;88.60;;;;;;10869876;32;20047;-75
2022/12/27 10:30:59;;;;;;;10.65;7.60;;;11.70;88.60;;;;;;10852108;32;20071;-75
2022/12/27 10:37:01;;;;;;;14.15;10.15;;;11.60;88.70;;;;;;10869439;32;20020;-75
2022/12/27 10:43:35;;;;;;;13.25;9.93;;;11.80;88.90;;;;;;10868969;32;20031;-75
2022/12/27 10:49:41;;;;;;;9.20;7.25;;;12.00;88.70;;;;;;10824608;32;20028;-75
2022/12/27 10:55:43;;;;;;;13.82;9.63;;;12.20;88.30;;;;;;10825910;32;20024;-75
2022/12/27 11:01:48;;;;;;;9.73;6.90;;;12.20;88.70;;;;;;10814830;32;20094;-75
2022/12/27 11:07:51;;;;;;;11.68;8.75;;;12.40;88.70;;;;;;10820146;32;20338;-76
2022/12/27 11:14:15;;;;;;;11.65;9.18;;;12.60;88.70;;;;;;10811472;33;20040;-75
2022/12/27 11:20:46;;;;;;;13.30;9.50;;;12.70;88.90;;;;;;10824078;32;20024;-75
2022/12/27 11:26:52;;;;;;;12.65;9.02;;;12.80;88.30;;;;;;10866494;32;20049;-75
2022/12/27 11:32:55;;;;;;;11.80;9.77;;;13.00;88.50;;;;;;10870008;32;20062;-75
2022/12/27 11:38:59;;;;;;;14.98;11.02;;;13.20;88.10;;;;;;10904915;32;20046;-76
2022/12/27 11:45:13;;;;;;;10.90;8.20;;;13.20;88.30;;;;;;10904667;32;20023;-76
2022/12/27 11:58:57;;;;;;;11.35;7.93;;;13.40;88.20;;;;;;10904385;32;20334;-74
2022/12/27 12:05:21;;;;;;;13.40;10.18;;;13.40;88.10;;;;;;10904127;32;20019;-74
2022/12/27 12:11:30;;;;;;;17.52;14.35;;;13.30;87.60;;;;;;10891161;32;20046;-74
2022/12/27 12:18:06;;;;;;;12.82;8.55;;;13.20;88.00;;;;;;10888375;32;20027;-74
2022/12/27 12:24:30;;;;;;;15.15;9.95;;;13.20;88.20;;;;;;10902356;32;20011;-74
2022/12/27 12:30:51;;;;;;;14.55;11.43;;;13.10;87.80;;;;;;10890164;32;20040;-73
2022/12/27 12:37:18;;;;;;;18.62;12.50;;;13.10;87.80;;;;;;10906665;32;20389;-74
2022/12/27 12:43:50;;;;;;;12.63;9.50;;;13.20;88.30;;;;;;10910999;32;20038;-74
2022/12/27 12:49:56;;;;;;;17.00;10.82;;;13.30;88.50;;;;;;10896566;32;20397;-74
2022/12/27 12:56:26;;;;;;;26.98;16.58;;;13.40;88.70;;;;;;10910548;32;20020;-73
2022/12/27 13:03:05;;;;;;;16.33;11.60;;;13.50;88.10;;;;;;10759263;33;20059;-74
2022/12/27 13:09:31;;;;;;;12.33;8.70;;;13.50;88.30;;;;;;10745169;33;20040;-73
2022/12/27 13:15:55;;;;;;;18.33;12.13;;;13.50;88.60;;;;;;10757886;33;20024;-74
2022/12/27 13:22:14;;;;;;;18.40;9.18;;;13.50;88.60;;;;;;10757660;33;20151;-74
2022/12/27 13:28:35;;;;;;;12.37;8.10;;;13.70;88.40;;;;;;10757448;33;20052;-73
2022/12/27 13:34:51;;;;;;;13.27;8.82;;;13.70;88.40;;;;;;10755777;33;20046;-75
2022/12/27 13:41:21;;;;;;;15.50;11.02;;;13.70;88.50;;;;;;10903972;32;20028;-75
2022/12/27 13:47:51;;;;;;;15.40;8.30;;;13.70;88.60;;;;;;10890289;32;20054;-75
2022/12/27 13:54:11;;;;;;;7.12;4.70;;;13.80;88.80;;;;;;10908400;32;20341;-75
2022/12/27 14:00:17;;;;;;;13.62;9.63;;;14.00;88.70;;;;;;10893633;32;20035;-75
2022/12/27 14:06:47;;;;;;;10.52;8.13;;;13.90;88.90;;;;;;10906407;32;20045;-75
2022/12/27 14:13:06;;;;;;;10.93;7.72;;;14.00;89.60;;;;;;10907835;32;20015;-76
2022/12/27 14:19:30;;;;;;;14.05;9.88;;;14.20;89.30;;;;;;10893859;32;20565;-75
2022/12/27 14:25:53;;;;;;;17.10;13.10;;;14.40;88.90;;;;;;10906093;32;20019;-76
2022/12/27 14:32:14;;;;;;;14.13;8.43;;;14.60;88.80;;;;;;10904259;32;20031;-75
2022/12/27 14:38:45;;;;;;;11.82;9.43;;;14.90;88.30;;;;;;10891896;32;20050;-75
2022/12/27 14:44:57;;;;;;;18.62;13.95;;;15.10;88.30;;;;;;10891604;32;20023;-75
2022/12/27 14:51:17;;;;;;;12.50;10.02;;;15.20;88.00;;;;;;10904496;32;20046;-75
2022/12/27 14:57:35;;;;;;;15.68;11.10;;;14.80;88.50;;;;;;10900669;32;20027;-75
2022/12/27 15:04:15;;;;;;;23.42;19.85;;;14.30;89.50;;;;;;10890176;32;20279;-75
2022/12/27 15:10:45;;;;;;;29.27;22.98;;;14.20;89.50;;;;;;10903851;32;20538;-75
2022/12/27 15:17:06;;;;;;;29.63;26.50;;;14.00;90.00;;;;;;10903207;32;20027;-75
2022/12/27 15:23:23;;;;;;;37.22;30.35;;;14.00;90.30;;;;;;10469560;32;12179374;-75
2022/12/27 15:29:34;;;;;;;47.78;35.92;;;13.90;90.10;;;;;;10790351;33;20039;-75
2022/12/27 15:35:57;;;;;;;30.42;27.08;;;13.80;90.30;;;;;;10788970;33;20067;-75
2022/12/27 15:42:05;;;;;;;36.63;32.55;;;13.70;90.10;;;;;;10789972;33;20311;-75
2022/12/27 15:48:25;;;;;;;43.20;35.25;;;13.50;90.20;;;;;;10801014;32;20043;-75
2022/12/27 15:54:53;;;;;;;38.08;31.92;;;13.40;90.40;;;;;;10890648;32;20033;-75
2022/12/27 16:01:14;;;;;;;41.37;32.03;;;13.50;90.10;;;;;;10904350;32;20054;-75
2022/12/27 16:07:38;;;;;;;34.15;28.58;;;13.50;89.80;;;;;;10904148;32;20425;-75
2022/12/27 16:13:47;;;;;;;32.42;27.83;;;13.40;89.30;;;;;;10890511;32;20066;-75
2022/12/27 16:20:11;;;;;;;40.38;30.88;;;13.30;89.20;;;;;;10890092;32;20428;-75
2022/12/27 16:26:19;;;;;;;38.15;29.92;;;13.30;89.00;;;;;;10846961;27;20061;-75
2022/12/27 16:32:27;;;;;;;36.35;27.35;;;13.30;88.70;;;;;;10866373;32;20012;-75
2022/12/27 16:38:31;;;;;;;39.85;29.50;;;13.30;88.30;;;;;;10865549;32;20326;-75
2022/12/27 16:44:44;;;;;;;33.67;26.83;;;13.30;87.90;;;;;;10866279;32;20019;-75
2022/12/27 16:51:00;;;;;;;40.17;31.95;;;13.30;87.90;;;;;;10866070;32;20020;-75
2022/12/27 16:57:23;;;;;;;52.78;37.72;;;13.40;88.30;;;;;;10864361;32;20315;-75
2022/12/27 17:03:35;;;;;;;37.53;31.20;;;13.50;88.10;;;;;;10860338;32;20401;-75
2022/12/27 17:09:40;;;;;;;48.35;38.78;;;13.20;87.70;;;;;;10851010;32;20071;-75
2022/12/27 17:15:48;;;;;;;41.17;32.80;;;13.20;87.40;;;;;;10862458;32;20020;-75
2022/12/27 17:21:57;;;;;;;37.83;28.50;;;13.20;87.10;;;;;;10867113;32;20019;-75
2022/12/27 17:28:21;;;;;;;41.97;35.03;;;13.10;86.80;;;;;;10871821;32;20019;-75
2022/12/27 17:34:55;;;;;;;52.45;40.03;;;13.10;86.70;;;;;;10871895;32;20016;-75
2022/12/27 17:44:36;;;;;;;36.45;28.65;;;13.10;86.70;;;;;;10867988;32;20051;-75
2022/12/27 17:48:20;;;;;;;38.78;31.12;;;13.20;86.40;;;;;;10871396;32;20020;-75
2022/12/27 18:00:59;;;;;;;50.10;40.78;;;13.10;86.60;;;;;;10870442;32;20024;-75
2022/12/27 18:07:04;;;;;;;29.83;25.65;;;13.20;87.10;;;;;;10856583;32;20054;-73
2022/12/27 18:13:06;;;;;;;30.10;23.85;;;13.20;86.70;;;;;;10870417;32;20023;-72
2022/12/27 18:19:30;;;;;;;52.30;37.17;;;12.90;86.70;;;;;;10870272;32;20020;-72
2022/12/27 18:25:43;;;;;;;39.28;32.75;;;12.80;87.30;;;;;;10870084;32;20024;-73
2022/12/27 18:31:52;;;;;;;38.40;31.70;;;12.90;87.10;;;;;;10869671;32;20016;-73
2022/12/27 18:37:54;;;;;;;41.05;29.30;;;12.60;87.10;;;;;;10868703;32;20050;-72
2022/12/27 18:43:59;;;;;;;38.50;28.12;;;12.20;87.70;;;;;;10869485;32;20053;-73
2022/12/27 18:50:05;;;;;;;36.55;27.80;;;12.30;87.90;;;;;;10866986;32;20031;-74
2022/12/27 18:56:14;;;;;;;39.03;32.30;;;12.50;87.50;;;;;;10869017;32;20051;-73
2022/12/27 19:03:10;;;;;;;51.37;38.47;;;12.70;87.60;;;;;;10868761;32;20468;-73
2022/12/27 19:09:18;;;;;;;33.78;29.33;;;12.80;87.40;;;;;;10866989;32;20024;-73
2022/12/27 19:15:27;;;;;;;;;;;12.80;87.70;;;;;;10855360;32;20020;-73
2022/12/27 19:21:35;;;;;;;26.35;23.33;;;12.70;87.60;;;;;;10868168;32;19927;-73
2022/12/27 19:27:56;;;;;;;49.57;38.63;;;12.30;88.00;;;;;;10868684;32;20445;-73
2022/12/27 19:34:01;;;;;;;53.03;41.30;;;12.30;88.30;;;;;;10849370;32;20070;-74
2022/12/27 19:40:03;;;;;;;36.90;30.77;;;12.50;88.00;;;;;;10854297;32;20326;-74
2022/12/27 19:46:06;;;;;;;49.28;33.40;;;12.70;88.10;;;;;;10867196;32;20008;-74
2022/12/27 19:52:28;;;;;;;44.13;34.22;;;12.40;87.90;;;;;;10852423;32;20093;-74
2022/12/27 19:58:31;;;;;;;42.95;30.25;;;12.50;88.10;;;;;;10853636;32;20060;-73
2022/12/27 20:04:33;;;;;;;44.15;32.60;;;12.70;87.90;;;;;;10866920;32;20019;-73
2022/12/27 20:10:35;;;;;;;35.50;28.80;;;12.80;87.60;;;;;;10862780;32;20046;-73
2022/12/27 20:16:37;;;;;;;39.20;29.87;;;12.70;87.50;;;;;;10866469;32;20059;-73
2022/12/27 20:22:39;;;;;;;45.22;33.85;;;12.50;87.70;;;;;;10866640;32;20039;-73
2022/12/27 20:28:44;;;;;;;36.78;28.58;;;12.60;87.70;;;;;;10866504;32;20342;-73
2022/12/27 20:34:46;;;;;;;37.65;29.55;;;12.70;87.60;;;;;;10831876;32;20024;-73
2022/12/27 20:40:49;;;;;;;46.42;35.75;;;12.80;87.50;;;;;;10829419;33;20008;-73
2022/12/27 20:46:51;;;;;;;32.75;26.92;;;12.80;87.40;;;;;;10826027;33;20020;-73
2022/12/27 20:52:54;;;;;;;48.40;37.78;;;12.70;87.30;;;;;;10828956;33;20032;-73
2022/12/27 20:58:56;;;;;;;34.97;28.62;;;12.70;87.70;;;;;;10819981;32;20025;-73
2022/12/27 21:04:58;;;;;;;36.67;31.37;;;12.70;87.40;;;;;;10835829;32;20410;-73
2022/12/27 21:11:11;;;;;;;35.22;28.35;;;12.60;87.50;;;;;;10821818;32;20039;-73
2022/12/27 21:17:15;;;;;;;53.65;43.22;;;12.60;87.50;;;;;;10835556;32;20046;-73
2022/12/27 21:23:17;;;;;;;40.33;29.48;;;12.70;87.40;;;;;;10821699;32;20063;-73
2022/12/27 21:29:19;;;;;;;39.80;28.73;;;12.70;87.20;;;;;;10834066;32;20024;-73
2022/12/27 21:35:21;;;;;;;32.20;25.37;;;12.60;87.30;;;;;;10821357;32;20046;-73
2022/12/27 21:41:26;;;;;;;32.00;23.77;;;12.40;87.20;;;;;;10830569;32;20044;-73
2022/12/27 21:47:30;;;;;;;32.95;24.83;;;12.10;87.50;;;;;;10834498;32;20387;-73
2022/12/27 21:53:32;;;;;;;35.58;30.00;;;12.10;88.10;;;;;;10821059;32;20046;-73
2022/12/27 21:59:35;;;;;;;34.00;28.40;;;12.40;88.00;;;;;;10820980;32;20420;-73
2022/12/27 22:05:37;;;;;;;55.20;39.20;;;12.50;88.20;;;;;;10834054;32;20062;-73
2022/12/27 22:11:39;;;;;;;38.08;31.90;;;12.70;88.30;;;;;;10829475;32;20047;-73
2022/12/27 22:17:41;;;;;;;42.10;32.80;;;12.70;88.00;;;;;;10833302;32;20019;-73
2022/12/27 22:23:45;;;;;;;36.28;28.12;;;12.70;87.90;;;;;;10833156;32;20334;-73
2022/12/27 22:29:47;;;;;;;38.47;27.92;;;12.50;87.90;;;;;;10833015;32;20078;-73
2022/12/27 22:35:49;;;;;;;33.85;26.40;;;12.30;88.10;;;;;;10832775;32;20016;-73
2022/12/27 22:41:51;;;;;;;52.15;40.15;;;12.20;88.10;;;;;;10819390;32;20023;-73
2022/12/27 22:47:53;;;;;;;45.58;32.67;;;12.20;88.30;;;;;;10832376;32;20024;-73
2022/12/27 22:53:57;;;;;;;37.38;26.10;;;12.30;88.00;;;;;;10832074;32;20023;-73
2022/12/27 22:59:59;;;;;;;48.20;30.90;;;12.40;87.90;;;;;;10831868;32;20012;-73
2022/12/27 23:06:01;;;;;;;53.22;33.60;;;12.40;87.80;;;;;;10814110;33;20027;-73
2022/12/27 23:12:05;;;;;;;62.65;50.35;;;12.50;87.70;;;;;;10817944;32;20342;-73
2022/12/27 23:18:07;;;;;;;41.47;33.90;;;12.50;87.70;;;;;;10831076;32;20047;-74
2022/12/27 23:24:10;;;;;;;46.65;36.63;;;12.60;87.70;;;;;;10829971;32;20017;-73
2022/12/27 23:30:13;;;;;;;44.53;33.13;;;12.70;88.10;;;;;;10830663;32;20043;-73
2022/12/27 23:36:15;;;;;;;38.78;28.62;;;12.60;88.20;;;;;;10830685;32;20047;-74
2022/12/27 23:42:17;;;;;;;40.88;27.65;;;12.70;88.10;;;;;;10830523;32;20055;-73
2022/12/27 23:48:20;;;;;;;36.15;27.75;;;12.60;87.90;;;;;;10830324;32;20016;-73
2022/12/27 23:54:22;;;;;;;27.40;24.12;;;12.50;87.90;;;;;;10827207;32;20019;-73
